createdAt,value
2018-09-03T00:02:04.905Z,5.40
2018-09-03T00:04:33.428Z,5.33
2018-09-03T00:07:01.901Z,4.87
2018-09-03T00:09:35.840Z,5.37
2018-09-03T00:12:04.643Z,4.77
2018-09-03T00:14:33.073Z,5.27
2018-09-03T00:17:01.697Z,5.40
2018-09-03T00:19:30.137Z,5.50
2018-09-03T00:21:58.937Z,4.80
2018-09-03T00:24:27.390Z,5.27
2018-09-03T00:26:56.137Z,5.50
2018-09-03T00:29:24.634Z,5.70
2018-09-03T00:31:58.566Z,5.07
2018-09-03T00:34:32.206Z,5.53
2018-09-03T00:37:06.081Z,5.30
2018-09-03T00:39:39.905Z,5.90
2018-09-03T00:42:13.762Z,5.97
2018-09-03T00:44:47.620Z,5.37
2018-09-03T00:47:16.513Z,5.10
2018-09-03T00:49:45.011Z,5.70
2018-09-03T00:52:13.572Z,5.27
2018-09-03T00:54:42.145Z,5.80
2018-09-03T00:57:10.596Z,5.60
2018-09-03T00:59:39.033Z,5.70
2018-09-03T01:02:07.638Z,5.70
2018-09-03T01:04:36.072Z,5.67
2018-09-03T01:07:04.564Z,6.03
2018-09-03T01:09:33.609Z,5.90
2018-09-03T01:12:02.043Z,6.10
2018-09-03T01:14:30.561Z,5.70
2018-09-03T01:16:59.353Z,5.73
2018-09-03T01:19:28.317Z,5.10
2018-09-03T01:21:56.777Z,5.63
2018-09-03T01:24:25.325Z,6.33
2018-09-03T01:26:53.797Z,5.57
2018-09-03T01:29:22.248Z,5.47
2018-09-03T01:31:55.017Z,5.70
2018-09-03T01:34:24.629Z,5.47
2018-09-03T01:36:53.408Z,5.80
2018-09-03T01:39:21.988Z,5.67
2018-09-03T01:41:50.541Z,5.77
2018-09-03T01:44:19.081Z,5.60
2018-09-03T01:46:48.121Z,5.60
2018-09-03T01:49:16.629Z,6.37
2018-09-03T01:51:45.238Z,5.77
2018-09-03T01:54:13.832Z,6.87
2018-09-03T01:56:42.261Z,5.90
2018-09-03T01:59:10.788Z,6.53
2018-09-03T02:01:39.225Z,6.37
2018-09-03T02:04:07.750Z,6.53
2018-09-03T02:06:36.517Z,6.27
2018-09-03T02:09:09.129Z,6.47
2018-09-03T02:11:37.925Z,6.23
2018-09-03T02:14:06.642Z,6.23
2018-09-03T02:16:36.194Z,5.90
2018-09-03T02:19:05.085Z,6.40
2018-09-03T02:21:33.535Z,6.23
2018-09-03T02:24:02.100Z,6.00
2018-09-03T02:26:30.839Z,6.30
2018-09-03T02:28:59.398Z,6.23
2018-09-03T02:31:27.968Z,6.20
2018-09-03T02:33:56.570Z,6.50
2018-09-03T02:36:25.028Z,7.10
2018-09-03T02:38:53.477Z,6.20
2018-09-03T02:41:21.997Z,6.70
2018-09-03T02:43:50.577Z,6.17
2018-09-03T02:46:19.144Z,6.37
2018-09-03T02:48:48.644Z,6.20
2018-09-03T02:51:17.099Z,6.63
2018-09-03T02:53:45.608Z,6.60
2018-09-03T02:56:14.113Z,6.43
2018-09-03T02:58:42.541Z,6.30
2018-09-03T03:01:11.102Z,6.40
2018-09-03T03:03:39.701Z,6.13
2018-09-03T03:06:08.140Z,6.80
2018-09-03T03:08:36.739Z,7.00
2018-09-03T03:11:05.545Z,6.73
2018-09-03T03:13:34.001Z,6.53
2018-09-03T03:16:02.617Z,6.23
2018-09-03T03:18:31.109Z,6.30
2018-09-03T03:20:59.565Z,6.33
2018-09-03T03:23:28.462Z,7.00
2018-09-03T03:25:56.980Z,6.97
2018-09-03T03:28:25.408Z,6.20
2018-09-03T03:30:53.896Z,6.70
2018-09-03T03:33:22.870Z,6.73
2018-09-03T03:35:51.377Z,6.63
2018-09-03T03:38:19.849Z,6.60
2018-09-03T03:40:48.386Z,6.37
2018-09-03T03:43:16.929Z,6.83
2018-09-03T03:45:45.553Z,7.10
2018-09-03T03:48:14.078Z,6.07
2018-09-03T03:50:42.701Z,8.47
2018-09-03T03:53:11.181Z,7.50
2018-09-03T03:55:39.630Z,7.17
2018-09-03T03:58:08.064Z,6.60
2018-09-03T04:00:36.523Z,7.07
2018-09-03T04:03:05.039Z,6.33
2018-09-03T04:05:33.477Z,7.10
2018-09-03T04:08:02.264Z,7.33
2018-09-03T04:10:30.999Z,7.30
2018-09-03T04:13:03.605Z,6.77
2018-09-03T04:15:32.130Z,6.80
2018-09-03T04:18:00.782Z,7.00
2018-09-03T04:20:29.317Z,6.80
2018-09-03T04:22:58.127Z,7.40
2018-09-03T04:25:26.928Z,7.90
2018-09-03T04:27:56.159Z,7.63
2018-09-03T04:30:24.757Z,7.83
2018-09-03T04:32:53.909Z,7.87
2018-09-03T04:35:22.382Z,7.70
2018-09-03T04:37:51.146Z,8.30
2018-09-03T04:40:19.674Z,8.83
2018-09-03T04:42:48.128Z,8.30
2018-09-03T04:45:16.636Z,7.77
2018-09-03T04:47:45.480Z,7.87
2018-09-03T04:50:13.962Z,8.47
2018-09-03T04:52:42.707Z,8.07
2018-09-03T04:55:11.184Z,8.70
2018-09-03T04:57:39.932Z,9.60
2018-09-03T05:00:08.402Z,8.30
2018-09-03T05:02:36.841Z,9.10
2018-09-03T05:05:05.494Z,9.00
2018-09-03T05:07:34.161Z,8.93
2018-09-03T05:10:02.604Z,8.57
2018-09-03T05:12:31.113Z,9.40
2018-09-03T05:14:59.889Z,8.97
2018-09-03T05:17:28.328Z,7.67
2018-09-03T05:19:56.809Z,9.43
2018-09-03T05:22:25.656Z,8.73
2018-09-03T05:24:54.085Z,8.00
2018-09-03T05:27:22.543Z,8.10
2018-09-03T05:29:51.414Z,6.93
2018-09-03T05:32:19.869Z,7.40
2018-09-03T05:34:48.433Z,8.17
2018-09-03T05:37:16.971Z,7.70
2018-09-03T05:39:45.410Z,7.27
2018-09-03T05:42:13.864Z,7.53
2018-09-03T05:44:42.313Z,7.50
2018-09-03T05:47:10.757Z,8.17
2018-09-03T05:49:39.727Z,8.00
2018-09-03T05:52:08.427Z,7.80
2018-09-03T05:54:36.957Z,7.40
2018-09-03T05:57:05.572Z,7.30
2018-09-03T05:59:34.186Z,6.80
2018-09-03T06:02:02.726Z,6.70
2018-09-03T06:04:31.729Z,7.10
2018-09-03T06:07:00.502Z,7.00
2018-09-03T06:09:29.090Z,6.60
2018-09-03T06:11:57.629Z,7.00
2018-09-03T06:14:27.525Z,7.60
2018-09-03T06:16:56.011Z,6.17
2018-09-03T06:19:24.516Z,5.60
2018-09-03T06:21:53.287Z,5.63
2018-09-03T06:24:21.767Z,4.90
2018-09-03T06:26:50.229Z,5.43
2018-09-03T06:29:19.025Z,5.00
2018-09-03T06:31:53.905Z,4.80
2018-09-03T06:34:22.734Z,4.80
2018-09-03T06:36:51.703Z,4.57
2018-09-03T06:39:20.353Z,4.60
2018-09-03T06:41:49.198Z,4.47
2018-09-03T06:44:17.807Z,4.33
2018-09-03T06:46:46.269Z,4.77
2018-09-03T06:49:15.154Z,4.00
2018-09-03T06:51:43.745Z,4.30
2018-09-03T06:54:12.257Z,3.85
2018-09-03T06:56:41.310Z,4.45
2018-09-03T06:59:09.752Z,4.20
2018-09-03T07:01:38.915Z,3.92
2018-09-03T07:04:07.477Z,3.98
2018-09-03T07:06:35.970Z,3.70
2018-09-03T07:09:06.694Z,3.95
2018-09-03T07:11:35.473Z,4.37
2018-09-03T07:14:03.958Z,3.65
2018-09-03T07:16:32.469Z,3.60
2018-09-03T07:19:01.277Z,3.60
2018-09-03T07:21:29.726Z,3.95
2018-09-03T07:23:58.229Z,4.20
2018-09-03T07:26:26.758Z,3.90
2018-09-03T07:28:55.299Z,3.42
2018-09-03T07:31:23.716Z,3.60
2018-09-03T07:33:52.236Z,4.00
2018-09-03T07:36:21.366Z,3.70
2018-09-03T07:38:49.846Z,3.65
2018-09-03T07:41:18.872Z,3.62
2018-09-03T07:43:47.294Z,3.67
2018-09-03T07:46:16.296Z,3.50
2018-09-03T07:48:45.150Z,3.40
2018-09-03T07:51:13.633Z,3.20
2018-09-03T07:53:42.846Z,3.15
2018-09-03T07:56:11.366Z,3.22
2018-09-03T07:58:40.212Z,3.17
2018-09-03T08:01:08.698Z,3.33
2018-09-03T08:03:37.660Z,3.22
2018-09-03T08:06:06.397Z,3.12
2018-09-03T08:08:34.959Z,3.55
2018-09-03T08:11:03.623Z,3.60
2018-09-03T08:13:37.193Z,3.52
2018-09-03T08:16:06.217Z,3.10
2018-09-03T08:18:34.649Z,2.95
2018-09-03T08:21:03.425Z,3.20
2018-09-03T08:23:32.366Z,3.47
2018-09-03T08:26:00.813Z,3.55
2018-09-03T08:28:29.309Z,3.65
2018-09-03T08:30:58.120Z,3.70
2018-09-03T08:33:26.554Z,3.65
2018-09-03T08:35:55.100Z,3.75
2018-09-03T08:38:23.850Z,3.90
2018-09-03T08:40:52.992Z,3.75
2018-09-03T08:43:21.643Z,4.17
2018-09-03T08:45:50.177Z,3.52
2018-09-03T08:48:18.606Z,3.35
2018-09-03T08:50:47.215Z,3.10
2018-09-03T08:53:15.989Z,3.22
2018-09-03T08:55:45.066Z,3.15
2018-09-03T08:58:13.534Z,3.02
2018-09-03T09:00:42.511Z,3.52
2018-09-03T09:03:17.674Z,3.60
2018-09-03T09:05:46.365Z,3.35
2018-09-03T09:08:15.013Z,3.10
2018-09-03T09:10:43.486Z,3.22
2018-09-03T09:13:12.202Z,3.20
2018-09-03T09:15:40.865Z,2.83
2018-09-03T09:18:09.325Z,2.85
2018-09-03T09:20:37.787Z,2.90
2018-09-03T09:23:06.225Z,2.60
2018-09-03T09:25:34.754Z,2.85
2018-09-03T09:28:03.616Z,3.20
2018-09-03T09:30:32.041Z,3.12
2018-09-03T09:33:00.702Z,3.05
2018-09-03T09:35:29.205Z,3.00
2018-09-03T09:37:57.663Z,2.98
2018-09-03T09:40:26.234Z,3.27
2018-09-03T09:42:55.097Z,3.10
2018-09-03T09:45:23.535Z,3.50
2018-09-03T09:47:52.106Z,2.98
2018-09-03T09:50:20.884Z,2.98
2018-09-03T09:52:49.662Z,6.40
2018-09-03T09:55:18.302Z,3.30
2018-09-03T09:57:47.537Z,3.72
2018-09-03T10:00:21.469Z,4.10
2018-09-03T10:02:50.051Z,3.22
2018-09-03T10:05:18.527Z,3.80
2018-09-03T10:07:47.469Z,7.58
2018-09-03T10:10:16.453Z,3.37
2018-09-03T10:12:44.934Z,3.98
2018-09-03T10:15:13.801Z,3.40
2018-09-03T10:17:42.554Z,3.02
2018-09-03T10:20:10.978Z,6.58
2018-09-03T10:22:39.561Z,3.25
2018-09-03T10:25:08.088Z,2.87
2018-09-03T10:27:36.549Z,3.25
2018-09-03T10:30:05.175Z,6.17
2018-09-03T10:32:33.830Z,4.08
2018-09-03T10:35:02.270Z,2.85
2018-09-03T10:37:30.867Z,3.05
2018-09-03T10:40:01.068Z,3.20
2018-09-03T10:42:30.429Z,2.98
2018-09-03T10:44:58.877Z,2.55
2018-09-03T10:47:27.733Z,3.33
2018-09-03T10:49:56.165Z,2.80
2018-09-03T10:52:24.757Z,2.58
2018-09-03T10:54:53.325Z,2.42
2018-09-03T10:57:22.656Z,2.70
2018-09-03T10:59:51.251Z,2.50
2018-09-03T11:02:20.162Z,2.67
2018-09-03T11:04:50.001Z,3.30
2018-09-03T11:07:18.466Z,3.72
2018-09-03T11:09:47.195Z,2.72
2018-09-03T11:12:16.061Z,2.37
2018-09-03T11:14:44.523Z,2.85
2018-09-03T11:17:13.174Z,2.67
2018-09-03T11:19:45.895Z,2.77
2018-09-03T11:22:15.136Z,2.58
2018-09-03T11:24:43.595Z,3.02
2018-09-03T11:27:12.067Z,2.75
2018-09-03T11:29:40.574Z,2.70
2018-09-03T11:32:15.505Z,2.55
2018-09-03T11:34:44.104Z,2.87
2018-09-03T11:37:12.645Z,2.47
2018-09-03T11:39:41.416Z,2.55
2018-09-03T11:42:10.145Z,2.62
2018-09-03T11:44:38.614Z,3.00
2018-09-03T11:47:07.196Z,2.72
2018-09-03T11:49:35.718Z,2.70
2018-09-03T11:52:04.183Z,2.40
2018-09-03T11:54:32.764Z,2.83
2018-09-03T11:57:01.425Z,2.67
2018-09-03T11:59:29.845Z,2.80
2018-09-03T12:01:58.613Z,2.60
2018-09-03T12:04:27.100Z,2.80
2018-09-03T12:06:55.553Z,2.85
2018-09-03T12:09:24.165Z,2.58
2018-09-03T12:11:52.679Z,2.50
2018-09-03T12:14:26.760Z,2.85
2018-09-03T12:16:56.044Z,2.55
2018-09-03T12:19:24.989Z,2.58
2018-09-03T12:21:53.533Z,2.75
2018-09-03T12:24:22.075Z,2.92
2018-09-03T12:26:50.570Z,2.60
2018-09-03T12:29:19.137Z,2.80
2018-09-03T12:31:47.736Z,2.75
2018-09-03T12:34:16.201Z,3.00
2018-09-03T12:36:44.661Z,2.83
2018-09-03T12:39:13.293Z,3.75
2018-09-03T12:41:41.746Z,2.92
2018-09-03T12:44:10.807Z,3.30
2018-09-03T12:46:39.439Z,3.30
2018-09-03T12:49:07.886Z,3.25
2018-09-03T12:51:36.453Z,3.17
2018-09-03T12:54:08.082Z,3.45
2018-09-03T12:56:36.633Z,3.12
2018-09-03T12:59:05.125Z,3.10
2018-09-03T13:01:33.698Z,3.42
2018-09-03T13:04:02.513Z,3.33
2018-09-03T13:06:30.951Z,3.12
2018-09-03T13:08:59.419Z,3.20
2018-09-03T13:11:28.157Z,3.30
2018-09-03T13:13:56.624Z,2.92
2018-09-03T13:16:25.990Z,3.10
2018-09-03T13:18:54.897Z,2.98
2018-09-03T13:21:23.318Z,3.20
2018-09-03T13:23:51.759Z,3.70
2018-09-03T13:26:20.353Z,3.60
2018-09-03T13:28:48.802Z,3.00
2018-09-03T13:31:17.251Z,2.92
2018-09-03T13:33:52.662Z,3.10
2018-09-03T13:36:27.454Z,3.22
2018-09-03T13:38:55.938Z,3.12
2018-09-03T13:41:24.428Z,3.30
2018-09-03T13:43:52.894Z,3.17
2018-09-03T13:46:21.365Z,3.47
2018-09-03T13:48:49.780Z,3.00
2018-09-03T13:51:18.518Z,3.52
2018-09-03T13:53:47.265Z,3.58
2018-09-03T13:56:15.711Z,3.62
2018-09-03T13:58:44.153Z,3.02
2018-09-03T14:01:12.762Z,3.60
2018-09-03T14:03:41.582Z,3.30
2018-09-03T14:06:10.210Z,3.30
2018-09-03T14:08:39.021Z,3.20
2018-09-03T14:11:07.469Z,3.47
2018-09-03T14:13:35.921Z,3.22
2018-09-03T14:16:04.420Z,3.15
2018-09-03T14:18:32.988Z,2.90
2018-09-03T14:21:01.467Z,2.70
2018-09-03T14:23:29.986Z,3.05
2018-09-03T14:25:58.422Z,2.87
2018-09-03T14:28:26.892Z,2.80
2018-09-03T14:30:55.583Z,3.40
2018-09-03T14:33:24.697Z,3.37
2018-09-03T14:35:53.137Z,2.80
2018-09-03T14:38:21.613Z,3.47
2018-09-03T14:40:50.065Z,2.92
2018-09-03T14:43:18.495Z,3.15
2018-09-03T14:45:46.963Z,3.20
2018-09-03T14:48:15.426Z,3.10
2018-09-03T14:50:43.865Z,3.17
2018-09-03T14:53:19.015Z,4.65
2018-09-03T14:55:47.682Z,3.40
2018-09-03T14:58:16.106Z,3.40
2018-09-03T15:00:44.565Z,4.10
2018-09-03T15:03:13.000Z,3.50
2018-09-03T15:05:41.517Z,3.40
2018-09-03T15:08:10.276Z,3.50
2018-09-03T15:10:38.853Z,3.70
2018-09-03T15:13:07.304Z,3.15
2018-09-03T15:15:35.778Z,3.58
2018-09-03T15:18:04.205Z,3.52
2018-09-03T15:20:33.161Z,3.67
2018-09-03T15:23:01.642Z,3.37
2018-09-03T15:25:30.073Z,3.50
2018-09-03T15:27:59.679Z,6.10
2018-09-03T15:30:28.129Z,5.45
2018-09-03T15:32:56.714Z,8.40
2018-09-03T15:35:26.164Z,4.12
2018-09-03T15:37:55.548Z,3.70
2018-09-03T15:40:24.200Z,3.65
2018-09-03T15:42:52.648Z,3.20
2018-09-03T15:45:21.129Z,3.10
2018-09-03T15:47:49.603Z,3.45
2018-09-03T15:50:18.057Z,3.25
2018-09-03T15:52:46.545Z,3.20
2018-09-03T15:55:15.030Z,3.55
2018-09-03T15:57:43.496Z,3.00
2018-09-03T16:00:12.091Z,3.45
2018-09-03T16:02:40.867Z,3.20
2018-09-03T16:05:09.353Z,2.75
2018-09-03T16:07:37.840Z,3.30
2018-09-03T16:10:06.449Z,3.30
2018-09-03T16:12:34.910Z,3.72
2018-09-03T16:15:03.534Z,3.05
2018-09-03T16:17:32.005Z,3.22
2018-09-03T16:20:00.483Z,3.70
2018-09-03T16:22:29.367Z,3.50
2018-09-03T16:25:04.053Z,4.03
2018-09-03T16:27:32.623Z,3.90
2018-09-03T16:30:01.225Z,4.35
2018-09-03T16:32:29.699Z,4.35
2018-09-03T16:34:58.198Z,3.60
2018-09-03T16:37:26.666Z,3.90
2018-09-03T16:39:55.177Z,3.80
2018-09-03T16:42:23.848Z,2.98
2018-09-03T16:44:52.296Z,2.75
2018-09-03T16:47:20.770Z,3.30
2018-09-03T16:49:49.282Z,3.10
2018-09-03T16:52:17.758Z,3.33
2018-09-03T16:54:46.228Z,3.30
2018-09-03T16:57:14.720Z,3.22
2018-09-03T16:59:43.177Z,3.47
2018-09-03T17:02:11.658Z,2.98
2018-09-03T17:04:40.255Z,3.52
2018-09-03T17:07:08.817Z,3.25
2018-09-03T17:09:37.667Z,3.10
2018-09-03T17:12:06.681Z,3.00
2018-09-03T17:14:35.182Z,3.15
2018-09-03T17:17:03.617Z,3.05
2018-09-03T17:19:32.114Z,3.00
2018-09-03T17:22:00.650Z,2.80
2018-09-03T17:24:29.577Z,2.98
2018-09-03T17:27:02.254Z,3.15
2018-09-03T17:29:30.824Z,3.02
2018-09-03T17:31:59.337Z,3.15
2018-09-03T17:34:28.672Z,4.20
2018-09-03T17:36:57.107Z,3.12
2018-09-03T17:39:25.574Z,3.40
2018-09-03T17:41:54.157Z,2.92
2018-09-03T17:44:22.615Z,3.20
2018-09-03T17:46:51.167Z,3.75
2018-09-03T17:49:19.669Z,3.25
2018-09-03T17:51:48.218Z,3.42
2018-09-03T17:54:16.676Z,3.45
2018-09-03T17:56:45.179Z,3.15
2018-09-03T17:59:13.656Z,3.40
2018-09-03T18:01:42.118Z,3.80
2018-09-03T18:04:11.032Z,3.75
2018-09-03T18:06:39.609Z,3.35
2018-09-03T18:09:08.257Z,3.75
2018-09-03T18:11:36.753Z,3.70
2018-09-03T18:14:05.354Z,3.35
2018-09-03T18:16:33.998Z,3.58
2018-09-03T18:19:02.574Z,3.42
2018-09-03T18:21:31.014Z,3.72
2018-09-03T18:23:59.458Z,3.72
2018-09-03T18:26:28.043Z,3.65
2018-09-03T18:28:56.722Z,4.20
2018-09-03T18:31:25.164Z,3.70
2018-09-03T18:33:53.634Z,5.00
2018-09-03T18:36:22.121Z,3.92
2018-09-03T18:38:56.977Z,3.85
2018-09-03T18:41:25.495Z,4.08
2018-09-03T18:43:54.353Z,4.08
2018-09-03T18:46:22.837Z,3.90
2018-09-03T18:48:51.791Z,3.87
2018-09-03T18:51:20.314Z,3.85
2018-09-03T18:53:48.857Z,3.85
2018-09-03T18:56:17.330Z,4.00
2018-09-03T18:58:45.770Z,4.47
2018-09-03T19:01:14.385Z,3.80
2018-09-03T19:03:42.837Z,4.23
2018-09-03T19:06:11.404Z,3.92
2018-09-03T19:08:39.869Z,3.70
2018-09-03T19:11:08.433Z,4.10
2018-09-03T19:13:36.882Z,4.33
2018-09-03T19:16:05.625Z,4.15
2018-09-03T19:18:34.115Z,4.05
2018-09-03T19:21:02.542Z,4.50
2018-09-03T19:23:31.202Z,4.23
2018-09-03T19:25:59.686Z,3.90
2018-09-03T19:28:28.840Z,4.43
2018-09-03T19:30:57.386Z,4.00
2018-09-03T19:33:26.396Z,4.60
2018-09-03T19:35:54.965Z,4.20
2018-09-03T19:38:23.565Z,4.43
2018-09-03T19:40:52.029Z,3.80
2018-09-03T19:43:20.486Z,4.20
2018-09-03T19:45:48.970Z,4.00
2018-09-03T19:48:17.409Z,4.37
2018-09-03T19:50:45.886Z,4.80
2018-09-03T19:53:14.368Z,4.10
2018-09-03T19:55:42.949Z,3.73
2018-09-03T19:58:11.409Z,3.70
2018-09-03T20:00:39.888Z,4.20
2018-09-03T20:03:08.339Z,4.10
2018-09-03T20:05:36.855Z,5.27
2018-09-03T20:08:05.430Z,6.30
2018-09-03T20:10:33.931Z,5.40
2018-09-03T20:13:09.096Z,4.40
2018-09-03T20:15:37.906Z,3.67
2018-09-03T20:18:06.587Z,3.80
2018-09-03T20:20:35.194Z,4.20
2018-09-03T20:23:03.687Z,4.13
2018-09-03T20:25:32.164Z,3.83
2018-09-03T20:28:00.676Z,4.10
2018-09-03T20:30:29.277Z,3.97
2018-09-03T20:32:58.400Z,3.90
2018-09-03T20:35:26.886Z,4.00
2018-09-03T20:37:55.356Z,4.00
2018-09-03T20:40:23.859Z,3.90
2018-09-03T20:42:52.826Z,12.10
2018-09-03T20:45:21.355Z,4.83
2018-09-03T20:47:49.877Z,3.60
2018-09-03T20:50:18.517Z,4.00
2018-09-03T20:52:46.962Z,3.97
2018-09-03T20:55:15.470Z,3.83
2018-09-03T20:57:43.954Z,3.80
2018-09-03T21:00:12.431Z,3.83
2018-09-03T21:02:41.114Z,4.40
2018-09-03T21:05:09.951Z,4.07
2018-09-03T21:07:38.447Z,3.87
2018-09-03T21:10:07.253Z,3.63
2018-09-03T21:12:36.050Z,4.17
2018-09-03T21:15:04.543Z,3.83
2018-09-03T21:17:33.117Z,4.17
2018-09-03T21:20:01.785Z,4.13
2018-09-03T21:22:30.250Z,4.37
2018-09-03T21:24:59.720Z,4.10
2018-09-03T21:27:28.463Z,4.27
2018-09-03T21:29:57.009Z,4.20
2018-09-03T21:32:25.549Z,4.40
2018-09-03T21:34:54.133Z,3.87
2018-09-03T21:37:22.569Z,3.97
2018-09-03T21:39:51.044Z,4.00
2018-09-03T21:42:19.509Z,4.20
2018-09-03T21:44:48.003Z,4.37
2018-09-03T21:47:16.513Z,4.47
2018-09-03T21:49:44.989Z,4.70
2018-09-03T21:52:13.478Z,4.47
2018-09-03T21:54:42.202Z,4.57
2018-09-03T21:57:10.845Z,4.17
2018-09-03T21:59:39.421Z,4.47
2018-09-03T22:02:09.634Z,4.30
2018-09-03T22:04:39.722Z,4.43
2018-09-03T22:07:08.621Z,4.43
2018-09-03T22:09:37.061Z,4.40
2018-09-03T22:12:06.056Z,4.07
2018-09-03T22:14:34.513Z,4.20
2018-09-03T22:17:02.985Z,3.70
2018-09-03T22:19:31.787Z,4.80
2018-09-03T22:22:01.274Z,4.13
2018-09-03T22:24:29.812Z,4.30
2018-09-03T22:26:58.391Z,4.30
2018-09-03T22:29:26.853Z,4.53
2018-09-03T22:31:55.417Z,4.37
2018-09-03T22:34:24.793Z,4.20
2018-09-03T22:36:53.289Z,4.53
2018-09-03T22:39:21.788Z,4.80
2018-09-03T22:41:50.381Z,4.30
2018-09-03T22:44:18.853Z,4.70
2018-09-03T22:46:47.276Z,4.60
2018-09-03T22:49:15.733Z,5.00
2018-09-03T22:51:44.355Z,4.83
2018-09-03T22:54:12.824Z,5.03
2018-09-03T22:56:41.287Z,4.83
2018-09-03T22:59:09.741Z,4.80
2018-09-03T23:01:38.182Z,4.77
2018-09-03T23:04:06.645Z,5.03
2018-09-03T23:06:35.070Z,4.63
2018-09-03T23:09:04.281Z,4.47
2018-09-03T23:11:32.781Z,4.67
2018-09-03T23:14:01.210Z,5.27
2018-09-03T23:16:29.649Z,4.83
2018-09-03T23:18:58.127Z,4.43
2018-09-03T23:21:26.785Z,4.73
2018-09-03T23:23:55.621Z,4.73
2018-09-03T23:26:24.123Z,4.93
2018-09-03T23:28:52.568Z,4.30
2018-09-03T23:31:21.046Z,5.17
2018-09-03T23:33:49.572Z,4.67
2018-09-03T23:36:18.010Z,4.97
2018-09-03T23:38:46.441Z,4.40
2018-09-03T23:41:15.018Z,4.63
2018-09-03T23:43:43.553Z,5.03
2018-09-03T23:46:11.985Z,5.23
2018-09-03T23:48:40.582Z,5.60
2018-09-03T23:51:09.060Z,5.00
2018-09-03T23:53:37.502Z,5.43
2018-09-03T23:56:05.974Z,6.00
2018-09-03T23:58:34.425Z,5.63
